Flight Track Log - Related Links

Times and Time Zones

All times are in EDT time to prevent confusion due to time zone crossing. See the ZS-SNC flight status page for this flight to view local times or setup timezone preferences in your user account.

Time Position Orientation Groundspeed Altitude Reporting Facility
EDT Latitude Longitude Course Direction KTS MPH feet Rate Location/Type
Tue 02:29:08 PM 51.4630 -0.4060 104° East 165 190 1,400  Level FlightAware ADS-B
Tue 02:29:16 PM 51.4594 -0.3945 117° Southeast 165 190 1,700 -2,160 Climbing FlightAware ADS-B
Tue 02:29:33 PM 51.4514 -0.3769 117° Southeast 178 205 500 1,161 Descending FlightAware UK
Tue 02:29:47 PM 51.4414 -0.3667 117° Southeast 172 198 2,300 3,938 Climbing FlightAware ADS-B
Tue 02:30:05 PM 51.4261 -0.3610 167° South 193 222 2,600 783 Climbing FlightAware ADS-B
Tue 02:30:10 PM 51.4216 -0.3611 180° South 208 239 2,600 600 Level FlightAware ADS-B
Tue 02:30:25 PM 51.4068 -0.3651 190° South 224 258 2,800 1,000 Climbing FlightAware ADS-B
Tue 02:30:34 PM 51.3972 -0.3701 198° South 233 268 3,000 1,286 Climbing FlightAware ADS-B
Tue 02:30:39 PM 51.3921 -0.3732 201° Southwest 241 277 3,100 667 Climbing FlightAware ADS-B
Tue 02:30:52 PM 51.3786 -0.3828 204° Southwest 255 293 3,200 1,000 Climbing FlightAware ADS-B
Tue 02:31:03 PM 51.3658 -0.3927 206° Southwest 265 305 3,500 2,222 Climbing FlightAware ADS-B
Tue 02:31:19 PM 51.3487 -0.4064 207° Southwest 267 307 4,200 2,516 Climbing FlightAware ADS-B
Tue 02:31:34 PM 51.3321 -0.4199 207° Southwest 266 306 4,800 2,516 Climbing FlightAware ADS-B
Tue 02:31:50 PM 51.3151 -0.4333 206° Southwest 267 307 5,500 2,323 Climbing FlightAware ADS-B
Tue 02:32:05 PM 51.2984 -0.4458 205° Southwest 268 308 6,000 1,800 Climbing FlightAware ADS-B
Tue 02:32:20 PM 51.2812 -0.4584 205° Southwest 271 312 6,400 968 Climbing FlightAware ADS-B
Tue 02:32:36 PM 51.2630 -0.4718 205° Southwest 272 313 6,500 387 Climbing FlightAware ADS-B
Tue 02:32:51 PM 51.2457 -0.4844 205° Southwest 271 312 6,600 1,313 Climbing FlightAware ADS-B
Tue 02:33:08 PM 51.2257 -0.4992 205° Southwest 270 311 7,200 2,063 Climbing FlightAware ADS-B
Tue 02:33:23 PM 51.2087 -0.5117 205° Southwest 272 313 7,700 2,129 Climbing FlightAware ADS-B
Tue 02:33:39 PM 51.1910 -0.5247 205° Southwest 274 315 8,300 2,222 Climbing FlightAware ADS-B
Tue 02:33:50 PM 51.1776 -0.5341 204° Southwest 277 319 8,700 2,000 Climbing FlightAware ADS-B
Tue 02:33:54 PM 51.1726 -0.5365 197° South 280 322 8,800 1,500 Climbing FlightAware ADS-B
Tue 02:33:58 PM 51.1680 -0.5380 191° South 282 325 8,900 1,333 Climbing FlightAware ADS-B
Tue 02:34:03 PM 51.1619 -0.5385 183° South 283 326 9,000 1,636 Climbing FlightAware ADS-B
Tue 02:34:09 PM 51.1542 -0.5367 172° South 286 329 9,200 1,636 Climbing FlightAware ADS-B
Tue 02:34:14 PM 51.1469 -0.5325 161° South 289 333 9,300 1,714 Climbing FlightAware ADS-B
Tue 02:34:23 PM 51.1367 -0.5230 150° Southeast 289 333 9,600 2,333 Climbing FlightAware ADS-B
Tue 02:34:32 PM 51.1268 -0.5130 148° Southeast 287 330 10,000 -706 Climbing FlightAware ADS-B
Tue 02:34:57 PM 51.0983 -0.4855 148° Southeast 294 338 9,200 1,500 Descending FlightAware UK
Tue 02:35:04 PM 51.0902 -0.4784 148° Southeast 299 344 10,800 3,730 Climbing FlightAware ADS-B
Tue 02:35:34 PM 51.0533 -0.4439 150° Southeast 318 366 11,500 -638 Climbing FlightAware ADS-B
Tue 02:35:51 PM 51.0306 -0.4228 150° Southeast 322 371 10,300 1,200 Descending FlightAware UK
Tue 02:36:04 PM 51.0136 -0.4083 150° Southeast 334 384 12,100 1,167 Climbing FlightAware ADS-B
Tue 02:36:27 PM 50.9814 -0.3796 150° Southeast 342 394 11,000 1,355 Descending FlightAware UK
Tue 02:36:35 PM 50.9701 -0.3698 150° Southeast 351 404 12,800 1,500 Climbing FlightAware ADS-B
Tue 02:36:51 PM 50.9474 -0.3492 150° Southeast 350 403 11,600 1,161 Descending FlightAware UK
Tue 02:37:06 PM 50.9257 -0.3297 150° Southeast 365 420 13,400 1,333 Climbing FlightAware ADS-B
Tue 02:37:27 PM 50.8948 -0.3012 150° Southeast 366 421 12,400 1,355 Descending FlightAware UK
Tue 02:37:37 PM 50.8801 -0.2880 150° Southeast 376 433 14,100 1,000 Climbing FlightAware ADS-B
Tue 02:37:57 PM 50.8492 -0.2596 150° Southeast 378 435 12,900 938 Descending FlightAware UK
Tue 02:38:09 PM 50.8303 -0.2431 150° Southeast 394 453 14,600 1,000 Climbing FlightAware ADS-B
Tue 02:38:27 PM 50.8010 -0.2171 150° Southeast 392 451 13,400 1,355 Descending FlightAware UK
Tue 02:38:40 PM 50.7810 -0.1997 150° Southeast 404 465 15,300 1,600 Climbing FlightAware ADS-B
Tue 02:38:57 PM 50.7521 -0.1738 150° Southeast 400 460 14,200 1,818 Descending FlightAware UK
Tue 02:39:13 PM 50.7271 -0.1513 150° Southeast 405 466 16,300 3,913 Climbing FlightAware ADS-B
Tue 02:39:43 PM 50.6771 -0.1060 150° Southeast 409 471 17,200 1,619 Climbing FlightAware ADS-B
Tue 02:40:16 PM 50.6236 -0.0576 150° Southeast 414 476 18,000 -214 Climbing FlightAware ADS-B
Tue 02:40:39 PM 50.5844 -0.0219 150° Southeast 410 472 17,000 1,400 Descending FlightAware UK
Tue 02:40:46 PM 50.5727 -0.0116 150° Southeast 418 481 18,700 1,400 Climbing FlightAware ADS-B
Tue 02:41:09 PM 50.5338 0.0237 150° Southeast 412 474 17,700 1,500 Descending FlightAware UK
Tue 02:41:18 PM 50.5198 0.0357 150° Southeast 422 486 19,500 1,250 Climbing FlightAware ADS-B
Tue 02:41:33 PM 50.4931 0.0600 150° Southeast 416 479 18,200 1,227 Descending FlightAware UK
Tue 02:42:02 PM 50.4435 0.1034 150° Southeast 431 496 20,400 2,475 Climbing FlightAware ADS-B
Tue 02:42:53 PM 50.3570 0.1810 150° Southeast 438 504 21,500 -90 Climbing FlightAware ADS-B
Tue 02:43:09 PM 50.3258 0.2087 150° Southeast 430 495 20,300 -1,412 Descending FlightAware UK
Tue 02:43:27 PM 50.2938 0.2370 150° Southeast 432 497 20,700 5,000 Climbing FlightAware UK
Tue 02:43:33 PM 50.2860 0.2430 150° Southeast 442 509 22,300 1,200 Climbing FlightAware ADS-B
Tue 02:43:57 PM 50.2400 0.2840 150° Southeast 434 499 21,300 -857 Descending FlightAware UK
Tue 02:44:15 PM 50.2077 0.3122 151° Southeast 436 502 21,700 5,429 Climbing FlightAware UK
Tue 02:44:18 PM 50.2080 0.3120 151° Southeast 446 513 23,200 1,000 Climbing FlightAware ADS-B
Tue 02:44:33 PM 50.1750 0.3409 151° Southeast 440 506 22,000 1,200 Descending FlightAware UK
Tue 02:44:58 PM 50.1350 0.3760 151° Southeast 450 518 24,000 1,125 Climbing FlightAware ADS-B
Tue 02:45:21 PM 50.0881 0.4174 151° Southeast 444 511 22,900 1,050 Descending FlightAware UK
Tue 02:45:38 PM 50.0620 0.4400 151° Southeast 453 521 24,700 1,000 Climbing FlightAware ADS-B
Tue 02:45:57 PM 50.0225 0.4744 151° Southeast 448 516 23,500 -977 Descending FlightAware UK
Tue 02:46:21 PM 49.9779 0.5129 151° Southeast 452 520 24,000 4,615 Climbing FlightAware UK
Tue 02:46:23 PM 49.9780 0.5120 151° Southeast 460 529 25,500 1,000 Climbing FlightAware ADS-B
Tue 02:46:45 PM 49.9328 0.5522 151° Southeast 456 525 24,400 1,200 Descending FlightAware UK
Tue 02:47:03 PM 49.9040 0.5780 151° Southeast 463 533 26,300 1,429 Climbing FlightAware ADS-B
Tue 02:47:27 PM 49.8555 0.6223 151° Southeast 458 527 25,400 -857 Descending FlightAware UK
Tue 02:47:45 PM 49.8218 0.6532 149° Southeast 460 529 25,700 5,429 Climbing FlightAware UK
Tue 02:47:48 PM 49.8220 0.6530 149° Southeast 466 536 27,300 1,333 Climbing FlightAware ADS-B
Tue 02:48:03 PM 49.7884 0.6837 149° Southeast 462 532 26,100 1,050 Descending FlightAware UK
Tue 02:48:28 PM 49.7470 0.7210 149° Southeast 472 543 28,000 857 Climbing FlightAware ADS-B
Tue 02:48:45 PM 49.7095 0.7554 149° Southeast 466 536 26,700 -1,371 Descending FlightAware UK
Tue 02:49:03 PM 49.6751 0.7869 149° Southeast 470 541 27,200 5,143 Climbing FlightAware UK
Tue 02:49:13 PM 49.6630 0.7970 149° Southeast 471 542 29,100 1,800 Climbing FlightAware ADS-B
Tue 02:49:33 PM 49.6190 0.8379 149° Southeast 458 527 28,100 1,200 Descending FlightAware UK
Tue 02:49:53 PM 49.5850 0.8680 149° Southeast 476 548 29,900 811 Climbing FlightAware ADS-B
Tue 02:50:10 PM 49.5505 0.8990 149° Southeast 462 532 28,600 -1,886 Descending FlightAware UK
Tue 02:50:28 PM 49.5156 0.9296 150° Southeast 462 532 28,800 4,071 Climbing FlightAware UK
Tue 02:50:38 PM 49.5020 0.9410 150° Southeast 486 559 30,500 1,000 Climbing FlightAware ADS-B
Tue 02:50:58 PM 49.4569 0.9822 150° Southeast 464 534 29,300 -1,421 Descending FlightAware UK
Tue 02:51:16 PM 49.4215 1.0141 150° Southeast 466 536 29,600 5,400 Climbing FlightAware UK
Tue 02:51:18 PM 49.4280 1.0070 150° Southeast 487 560 31,100 1,765 Climbing FlightAware ADS-B
Tue 02:51:33 PM 49.3865 1.0457 150° Southeast 466 536 30,100 -1,059 Descending FlightAware UK
Tue 02:51:52 PM 49.3507 1.0774 150° Southeast 460 529 30,500 4,200 Climbing FlightAware UK
Tue 02:52:03 PM 49.3340 1.0910 150° Southeast 492 566 32,200 800 Climbing FlightAware ADS-B
Tue 02:52:22 PM 49.2918 1.1297 150° Southeast 458 527 30,900 -1,784 Descending FlightAware UK
Tue 02:52:40 PM 49.2560 1.1611 150° Southeast 464 534 31,100 5,143 Climbing FlightAware UK
Tue 02:52:43 PM 49.2530 1.1630 150° Southeast 500 575 32,700 1,333 Climbing FlightAware ADS-B
Tue 02:52:58 PM 49.2201 1.1929 150° Southeast 464 534 31,500 1,200 Descending FlightAware UK
Tue 02:53:23 PM 49.1750 1.2330 150° Southeast 499 574 33,500 1,125 Climbing FlightAware ADS-B
Tue 02:53:46 PM 49.1234 1.2794 150° Southeast 458 527 32,400 -1,317 Descending FlightAware UK
Tue 02:54:04 PM 49.0877 1.3106 150° Southeast 460 529 32,600 4,636 Climbing FlightAware UK
Tue 02:54:08 PM 49.0810 1.3150 150° Southeast 503 579 34,100 750 Climbing FlightAware ADS-B
Tue 02:54:28 PM 49.0397 1.3523 150° Southeast 464 534 32,900 -1,421 Descending FlightAware UK
Tue 02:54:46 PM 49.0028 1.3845 150° Southeast 468 539 33,200 5,400 Climbing FlightAware UK
Tue 02:54:48 PM 49.0050 1.3810 150° Southeast 504 580 34,700 667 Climbing FlightAware ADS-B
Tue 02:55:04 PM 48.9664 1.4163 150° Southeast 468 539 33,400 -2,294 Descending FlightAware UK
Tue 02:55:22 PM 48.9301 1.4481 150° Southeast 468 539 33,400 4,000 Level FlightAware UK
Tue 02:55:28 PM 48.9240 1.4530 150° Southeast 504 580 35,000 167 Climbing FlightAware ADS-B
Tue 02:55:58 PM 48.8574 1.5121 150° Southeast 472 543 33,500  Descending FlightAware UK
Tue 02:56:13 PM 48.8350 1.5310 150° Southeast 510 587 35,000  Climbing FlightAware ADS-B
Tue 02:56:28 PM 48.7969 1.5666 150° Southeast 470 541 33,500 -2,727 Descending FlightAware UK
Tue 02:56:46 PM 48.7600 1.5987 150° Southeast 470 541 33,500 3,600 Level FlightAware UK
Tue 02:56:53 PM 48.7550 1.6010 150° Southeast 510 587 35,000  Climbing FlightAware ADS-B
Tue 02:57:16 PM 48.6981 1.6523 150° Southeast 472 543 33,500  Descending FlightAware UK
Tue 02:57:38 PM 48.6560 1.6870 150° Southeast 514 592 35,000  Climbing FlightAware ADS-B
Tue 02:57:58 PM 48.6112 1.7266 150° Southeast 474 545 33,500 -2,368 Descending FlightAware UK
Tue 02:58:16 PM 48.5738 1.7584 151° Southeast 472 543 33,500 4,500 Level FlightAware UK
Tue 02:58:18 PM 48.5740 1.7570 151° Southeast 514 592 35,000  Climbing FlightAware ADS-B
Tue 02:58:34 PM 48.5363 1.7901 151° Southeast 472 543 33,500 -2,647 Descending FlightAware UK
Tue 02:58:52 PM 48.4990 1.8220 151° Southeast 472 543 33,500 3,103 Level FlightAware UK
Tue 02:59:03 PM 48.4810 1.8370 151° Southeast 516 594 35,000  Climbing FlightAware ADS-B
Tue 02:59:22 PM 48.4366 1.8748 151° Southeast 472 543 33,500 -2,432 Descending FlightAware UK
Tue 02:59:40 PM 48.3988 1.9069 151° Southeast 472 543 33,500 4,286 Level FlightAware UK
Tue 02:59:43 PM 48.3980 1.9080 151° Southeast 514 592 35,000 2,093 Climbing FlightAware ADS-B
Tue 03:00:23 PM 48.3110 1.9620 158° South 500 575 35,000  Level FlightAware ADS-B
Tue 03:01:08 PM 48.2110 2.0000 166° South 504 580 35,000  Level FlightAware ADS-B
Tue 03:01:48 PM 48.1250 2.0330 166° South 507 583 35,000  Level FlightAware ADS-B
Tue 03:02:28 PM 48.0300 2.0690 166° South 510 587 35,000  Level FlightAware ADS-B
Tue 03:03:13 PM 47.9280 2.1080 166° South 508 585 35,000  Level FlightAware ADS-B
Tue 03:03:53 PM 47.8370 2.1430 166° South 508 585 35,000  Level FlightAware ADS-B
Tue 03:04:38 PM 47.7300 2.1840 166° South 508 585 35,000  Level FlightAware ADS-B
Tue 03:05:18 PM 47.6420 2.2170 166° South 506 582 35,000  Level FlightAware ADS-B
Tue 03:05:58 PM 47.5530 2.2500 166° South 505 581 35,000  Level FlightAware ADS-B
Tue 03:06:43 PM 47.4540 2.2880 165° South 505 581 35,000  Level FlightAware ADS-B
Tue 03:07:23 PM 47.3600 2.3230 166° South 506 582 35,000  Level FlightAware ADS-B
Tue 03:08:08 PM 47.2550 2.3620 166° South 504 580 35,000  Level FlightAware ADS-B
Tue 03:08:48 PM 47.1650 2.3950 166° South 503 579 35,000  Level FlightAware ADS-B
Tue 03:09:33 PM 47.0660 2.4320 166° South 503 579 35,000  Level FlightAware ADS-B
Tue 03:10:13 PM 46.9760 2.4650 166° South 505 581 35,000  Level FlightAware ADS-B
Tue 03:10:43 PM 46.9070 2.4900 166° South 505 581 35,000  Level FlightAware ADS-B
Tue 03:11:18 PM 46.8280 2.5190 166° South 505 581 35,000  Level FlightAware ADS-B
Tue 03:11:58 PM 46.7380 2.5520 166° South 504 580 35,000  Level FlightAware ADS-B
Tue 03:12:43 PM 46.6400 2.5870 166° South 505 581 35,000  Level FlightAware ADS-B
Tue 03:13:23 PM 46.5470 2.6270 164° South 512 589 35,000  Level FlightAware ADS-B
Tue 03:14:03 PM 46.4570 2.6720 161° South 515 593 35,000  Level FlightAware ADS-B
Tue 03:14:43 PM 46.3690 2.7150 161° South 516 594 35,000  Level FlightAware ADS-B
Tue 03:15:28 PM 46.2600 2.7660 162° South 514 592 35,000  Level FlightAware ADS-B
Tue 03:16:08 PM 46.1730 2.8080 162° South 509 586 35,000  Level FlightAware ADS-B
Tue 03:16:48 PM 46.0810 2.8510 162° South 511 588 35,000  Level FlightAware ADS-B
Tue 03:17:33 PM 45.9840 2.8960 162° South 511 588 35,000  Level FlightAware ADS-B
Tue 03:18:13 PM 45.8940 2.9390 162° South 511 588 35,000  Level FlightAware ADS-B
Tue 03:18:53 PM 45.8060 2.9800 162° South 510 587 35,000  Level FlightAware ADS-B
Tue 03:19:38 PM 45.7100 3.0240 162° South 506 582 35,000  Level FlightAware ADS-B
Tue 03:20:18 PM 45.6190 3.0670 162° South 506 582 35,000  Level FlightAware ADS-B
Tue 03:20:58 PM 45.5340 3.1060 162° South 507 583 35,000  Level FlightAware ADS-B
Tue 03:21:58 PM 45.4000 3.1690 162° South 507 583 35,000  Level FlightAware ADS-B
Tue 03:22:43 PM 45.3040 3.2110 163° South 503 579 35,000  Level FlightAware ADS-B
Tue 03:23:23 PM 45.1980 3.2590 162° South 514 592 35,000  Level FlightAware ADS-B
Tue 03:24:03 PM 45.1050 3.3010 162° South 508 585 35,000  Level FlightAware ADS-B
Tue 03:24:48 PM 45.0070 3.3460 162° South 505 581 35,000  Level FlightAware ADS-B
Tue 03:25:28 PM 44.9180 3.3860 162° South 504 580 35,000  Level FlightAware ADS-B
Tue 03:26:13 PM 44.8170 3.4310 162° South 506 582 35,000  Level FlightAware ADS-B
Tue 03:26:53 PM 44.7320 3.4690 162° South 506 582 35,000  Level FlightAware ADS-B
Tue 03:27:38 PM 44.6280 3.5160 162° South 501 577 35,000  Level FlightAware ADS-B
Tue 03:28:18 PM 44.5410 3.5540 163° South 502 578 35,000  Level FlightAware ADS-B
Tue 03:28:58 PM 44.4530 3.5930 162° South 499 574 35,000  Level FlightAware ADS-B
Tue 03:29:43 PM 44.3550 3.6370 162° South 497 572 35,000  Level FlightAware ADS-B
Tue 03:30:23 PM 44.2690 3.6740 163° South 496 571 35,000  Level FlightAware ADS-B
Tue 03:30:58 PM 44.1890 3.7140 160° South 498 573 35,000  Level FlightAware ADS-B
Tue 03:31:48 PM 44.0810 3.7690 160° South 498 573 35,000  Level FlightAware ADS-B
Tue 03:32:28 PM 43.9930 3.8120 161° South 500 575 35,000  Level FlightAware ADS-B
Tue 03:33:13 PM 43.9000 3.8580 160° South 499 574 35,000  Level FlightAware ADS-B
Tue 03:33:53 PM 43.8110 3.9020 160° South 503 579 35,000  Level FlightAware ADS-B
Tue 03:34:33 PM 43.7220 3.9460 160° South 508 585 35,000  Level FlightAware ADS-B
Tue 03:35:18 PM 43.6230 3.9950 160° South 505 581 35,000  Level FlightAware ADS-B
Tue 03:35:58 PM 43.5370 4.0370 161° South 501 577 35,000  Level FlightAware ADS-B
Tue 03:36:38 PM 43.4480 4.0800 161° South 499 574 35,000  Level FlightAware ADS-B
Tue 03:37:23 PM 43.3500 4.1270 161° South 498 573 35,000  Level FlightAware ADS-B
Tue 03:38:03 PM 43.2630 4.1690 161° South 499 574 35,000  Level FlightAware ADS-B
Tue 03:38:48 PM 43.1640 4.2170 161° South 497 572 35,000  Level FlightAware ADS-B
Tue 03:39:28 PM 43.0760 4.2600 160° South 498 573 35,000  Level FlightAware ADS-B
Tue 03:40:13 PM 42.9780 4.3060 161° South 500 575 35,000  Level FlightAware ADS-B
Tue 03:40:48 PM 42.9080 4.3400 160° South 503 579 35,000  Level FlightAware ADS-B
Tue 03:41:28 PM 42.8210 4.3810 161° South 502 578 35,000  Level FlightAware ADS-B
Tue 03:42:33 PM 42.6810 4.4490 160° South 501 577 35,000  Level FlightAware ADS-B
Tue 03:43:28 PM 42.5680 4.5020 161° South 498 573 35,000  Level FlightAware ADS-B
Tue 03:44:08 PM 42.4940 4.5390 160° South 498 573 35,000  Level FlightAware ADS-B
Tue 03:44:43 PM 42.3950 4.5820 162° South 498 573 35,000  Level FlightAware ADS-B
Tue 03:45:48 PM 42.2740 4.6400 160° South 498 573 35,000  Level FlightAware ADS-B
Tue 03:46:28 PM 42.1620 4.6910 161° South 496 571 35,000  Level FlightAware ADS-B
Tue 03:47:13 PM 42.0670 4.7350 161° South 496 571 35,000  Level FlightAware ADS-B
Tue 03:47:58 PM 41.9640 4.7830 161° South 494 568 35,000  Level FlightAware ADS-B
Tue 03:48:38 PM 41.8810 4.8210 161° South 494 568 35,000  Level FlightAware ADS-B
Tue 03:49:18 PM 41.7920 4.8620 161° South 495 570 35,000  Level FlightAware ADS-B
Tue 03:50:03 PM 41.6980 4.9050 161° South 498 573 35,000  Level FlightAware ADS-B
Tue 03:50:43 PM 41.6090 4.9460 161° South 499 574 35,000  Level FlightAware ADS-B
Tue 03:51:28 PM 41.5100 4.9910 161° South 499 574 35,000  Level FlightAware ADS-B
Tue 03:52:08 PM 41.4210 5.0310 161° South 503 579 35,000  Level FlightAware ADS-B
Tue 03:52:48 PM 41.3330 5.0710 161° South 504 580 35,000  Level FlightAware ADS-B
Tue 03:53:33 PM 41.2360 5.1150 161° South 499 574 35,000  Level FlightAware ADS-B
Tue 03:54:13 PM 41.1500 5.1540 161° South 499 574 35,000  Level FlightAware ADS-B
Tue 03:54:58 PM 41.0480 5.1990 162° South 499 574 35,000  Level FlightAware ADS-B
Tue 03:55:33 PM 40.9870 5.2270 161° South 491 565 35,000  Level FlightAware ADS-B
Tue 03:56:18 PM 40.8820 5.2730 162° South 489 563 35,000  Level FlightAware ADS-B
Tue 03:57:03 PM 40.7850 5.3170 161° South 495 570 35,000  Level FlightAware ADS-B
Tue 03:57:43 PM 40.6940 5.3570 162° South 489 563 35,000  Level FlightAware ADS-B
Tue 03:58:28 PM 40.5950 5.4010 161° South 491 565 35,000  Level FlightAware ADS-B
Tue 03:59:08 PM 40.5090 5.4390 161° South 495 570 35,000  Level FlightAware ADS-B
Tue 03:59:48 PM 40.4150 5.4800 162° South 502 578 35,000  Level FlightAware ADS-B
Tue 04:00:33 PM 40.3200 5.5220 161° South 499 574 35,000  Level FlightAware ADS-B
Tue 04:01:13 PM 40.2320 5.5600 162° South 496 571 35,000  Level FlightAware ADS-B
Tue 04:01:53 PM 40.1450 5.5980 162° South 497 572 35,000  Level FlightAware ADS-B
Tue 04:02:38 PM 40.0440 5.6420 162° South 492 566 35,000  Level FlightAware ADS-B
Tue 04:03:18 PM 39.9580 5.6790 162° South 491 565 35,000  Level FlightAware ADS-B
Tue 04:03:58 PM 39.8740 5.7160 161° South 492 566 35,000  Level FlightAware ADS-B
Tue 04:04:43 PM 39.7800 5.7560 162° South 492 566 35,000  Level FlightAware ADS-B
Tue 04:05:23 PM 39.6920 5.7940 162° South 493 567 35,000  Level FlightAware ADS-B
Tue 04:06:08 PM 39.5930 5.8370 161° South 493 567 35,000  Level FlightAware ADS-B
Tue 04:06:48 PM 39.5080 5.8730 162° South 489 563 35,000  Level FlightAware ADS-B
Tue 04:07:28 PM 39.4180 5.9110 162° South 496 571 35,000  Level FlightAware ADS-B
Tue 04:08:13 PM 39.3190 5.9530 162° South 491 565 35,000  Level FlightAware ADS-B
Tue 04:08:53 PM 39.2320 5.9780 167° South 482 555 35,000  Level FlightAware ADS-B
Tue 04:09:38 PM 39.1300 5.9930 173° South 484 557 35,000  Level FlightAware ADS-B
Tue 04:10:18 PM 39.0420 6.0070 173° South 485 558 35,000  Level FlightAware ADS-B
Tue 04:10:58 PM 38.9520 6.0210 173° South 488 562 35,000  Level FlightAware ADS-B
Tue 04:11:43 PM 38.8520 6.0370 173° South 485 558 35,000  Level FlightAware ADS-B
Tue 04:12:23 PM 38.7640 6.0510 173° South 483 556 35,000  Level FlightAware ADS-B
Tue 04:13:08 PM 38.6630 6.0670 173° South 482 555 35,000  Level FlightAware ADS-B
Tue 04:13:48 PM 38.5780 6.0810 173° South 485 558 35,000  Level FlightAware ADS-B
Tue 04:14:28 PM 38.4850 6.0950 173° South 487 560 35,000  Level FlightAware ADS-B
Tue 04:15:13 PM 38.3870 6.1110 173° South 483 556 35,000  Level FlightAware ADS-B
Tue 04:15:53 PM 38.3020 6.1240 173° South 483 556 35,000  Level FlightAware ADS-B
Tue 04:16:38 PM 38.2050 6.1410 172° South 470 541 35,000 -4 Level FlightAware ADS-B
Tue 04:19:00 PM 37.9257 6.2799 159° South  Level Estimated
Tue 04:20:00 PM 37.8077 6.3383 159° South  Level Estimated
Tue 04:21:00 PM 37.6896 6.3965 159° South  Level Estimated
Tue 04:22:00 PM 37.5715 6.4545 159° South  Level Estimated
Tue 04:23:00 PM 37.4534 6.5124 159° South  Level Estimated
Tue 04:24:00 PM 37.3352 6.5700 159° South  Level Estimated
Tue 04:25:00 PM 37.2170 6.6275 159° South  Level Estimated
Tue 04:26:00 PM 37.0988 6.6848 159° South  Level Estimated
Tue 04:27:00 PM 36.9805 6.7419 159° South  Level Estimated
Tue 04:28:00 PM 36.8623 6.7988 159° South  Level Estimated
Tue 04:29:00 PM 36.7440 6.8556 159° South  Level Estimated
Tue 04:30:00 PM 36.6256 6.9122 159° South  Level Estimated
Tue 04:31:00 PM 36.5073 6.9686 159° South  Level Estimated
Tue 04:32:00 PM 36.3889 7.0248 159° South  Level Estimated
Tue 04:33:00 PM 36.2705 7.0809 159° South  Level Estimated
Tue 04:34:00 PM 36.1521 7.1368 159° South  Level Estimated
Tue 04:35:00 PM 36.0336 7.1925 159° South  Level Estimated
Tue 04:36:00 PM 35.9151 7.2481 159° South  Level Estimated
Tue 04:37:00 PM 35.7966 7.3035 159° South  Level Estimated
Tue 04:38:00 PM 35.6781 7.3587 159° South  Level Estimated
Tue 04:39:00 PM 35.5595 7.4138 159° South  Level Estimated
Tue 04:40:00 PM 35.4409 7.4686 159° South  Level Estimated
Tue 04:41:00 PM 35.3223 7.5234 159° South  Level Estimated
Tue 04:42:00 PM 35.2037 7.5780 159° South  Level Estimated
Tue 04:43:00 PM 35.0850 7.6324 159° South  Level Estimated
Tue 04:44:00 PM 34.9663 7.6866 159° South  Level Estimated
Tue 04:45:00 PM 34.8476 7.7408 159° South  Level Estimated
Tue 04:46:00 PM 34.7289 7.7947 160° South  Level Estimated
Tue 04:47:00 PM 34.6101 7.8485 160° South  Level Estimated
Tue 04:48:00 PM 34.4913 7.9021 160° South  Level Estimated
Tue 04:49:00 PM 34.3726 7.9556 160° South  Level Estimated
Tue 04:50:00 PM 34.2537 8.0090 160° South  Level Estimated
Tue 04:51:00 PM 34.1349 8.0622 160° South  Level Estimated
Tue 04:52:00 PM 34.0160 8.1152 160° South  Level Estimated
Tue 04:53:00 PM 33.8971 8.1681 160° South  Level Estimated
Tue 04:54:00 PM 33.7782 8.2208 160° South  Level Estimated
Tue 04:55:00 PM 33.6592 8.2734 160° South  Level Estimated
Tue 04:56:00 PM 33.5403 8.3259 160° South  Level Estimated
Tue 04:57:00 PM 33.4213 8.3782 160° South  Level Estimated
Tue 04:58:00 PM 33.3023 8.4304 160° South  Level Estimated
Tue 04:59:00 PM 33.1833 8.4824 160° South  Level Estimated
Tue 05:00:00 PM 33.0642 8.5343 160° South  Level Estimated
Tue 05:01:00 PM 32.9451 8.5860 160° South  Level Estimated
Tue 05:02:00 PM 32.8261 8.6376 160° South  Level Estimated
Tue 05:03:00 PM 32.7070 8.6890 160° South  Level Estimated
Tue 05:04:00 PM 32.5878 8.7404 160° South  Level Estimated
Tue 05:05:00 PM 32.4687 8.7916 160° South  Level Estimated
Tue 05:06:00 PM 32.3495 8.8426 160° South  Level Estimated
Tue 05:07:00 PM 32.2303 8.8935 160° South  Level Estimated
Tue 05:08:00 PM 32.1111 8.9443 160° South  Level Estimated
Tue 05:09:00 PM 31.9918 8.9950 160° South  Level Estimated
Tue 05:10:00 PM 31.8726 9.0455 160° South  Level Estimated
Tue 05:11:00 PM 31.7533 9.0959 160° South  Level Estimated
Tue 05:12:00 PM 31.6340 9.1461 160° South  Level Estimated
Tue 05:13:00 PM 31.5147 9.1963 160° South  Level Estimated
Tue 05:14:00 PM 31.3953 9.2463 160° South  Level Estimated
Tue 05:15:00 PM 31.2760 9.2961 160° South  Level Estimated
Tue 05:16:00 PM 31.1566 9.3459 160° South  Level Estimated
Tue 05:17:00 PM 31.0372 9.3955 160° South  Level Estimated
Tue 05:18:00 PM 30.9178 9.4450 160° South  Level Estimated
Tue 05:19:00 PM 30.7984 9.4944 160° South  Level Estimated
Tue 05:20:00 PM 30.6789 9.5437 160° South  Level Estimated
Tue 05:21:00 PM 30.5595 9.5928 160° South  Level Estimated
Tue 05:22:00 PM 30.4400 9.6418 161° South  Level Estimated
Tue 05:23:00 PM 30.3205 9.6907 161° South  Level Estimated
Tue 05:24:00 PM 30.2010 9.7395 161° South  Level Estimated
Tue 05:25:00 PM 30.0814 9.7881 161° South  Level Estimated
Tue 05:26:00 PM 29.9619 9.8367 161° South  Level Estimated
Tue 05:27:00 PM 29.8423 9.8851 161° South  Level Estimated
Tue 05:28:00 PM 29.7227 9.9334 161° South  Level Estimated
Tue 05:29:00 PM 29.6031 9.9816 161° South  Level Estimated
Tue 05:30:00 PM 29.4835 10.0297 161° South  Level Estimated
Tue 05:31:00 PM 29.3638 10.0776 161° South  Level Estimated
Tue 05:32:00 PM 29.2442 10.1255 161° South  Level Estimated
Tue 05:33:00 PM 29.1245 10.1732 161° South  Level Estimated
Tue 05:34:00 PM 29.0048 10.2208 161° South  Level Estimated
Tue 05:35:00 PM 28.8851 10.2684 161° South  Level Estimated
Tue 05:36:00 PM 28.7653 10.3158 161° South  Level Estimated
Tue 05:37:00 PM 28.6456 10.3631 161° South  Level Estimated
Tue 05:38:00 PM 28.5258 10.4103 161° South  Level Estimated
Tue 05:39:00 PM 28.4060 10.4573 161° South  Level Estimated
Tue 05:40:00 PM 28.2862 10.5043 161° South  Level Estimated
Tue 05:41:00 PM 28.1664 10.5512 161° South  Level Estimated
Tue 05:42:00 PM 28.0466 10.5980 161° South  Level Estimated
Tue 05:43:00 PM 27.9268 10.6446 161° South  Level Estimated
Tue 05:44:00 PM 27.8069 10.6912 161° South  Level Estimated
Tue 05:45:00 PM 27.6870 10.7376 161° South  Level Estimated
Tue 05:46:00 PM 27.5671 10.7840 161° South  Level Estimated
Tue 05:47:00 PM 27.4472 10.8302 161° South  Level Estimated
Tue 05:48:00 PM 27.3273 10.8764 161° South  Level Estimated
Tue 05:49:00 PM 27.2074 10.9225 161° South  Level Estimated
Tue 05:50:00 PM 27.0874 10.9684 161° South  Level Estimated
Tue 05:51:00 PM 26.9675 11.0143 161° South  Level Estimated
Tue 05:52:00 PM 26.8475 11.0600 161° South  Level Estimated
Tue 05:53:00 PM 26.7275 11.1057 161° South  Level Estimated
Tue 05:54:00 PM 26.6075 11.1513 161° South  Level Estimated
Tue 05:55:00 PM 26.4875 11.1967 161° South  Level Estimated
Tue 05:56:00 PM 26.3674 11.2421 161° South  Level Estimated
Tue 05:57:00 PM 26.2474 11.2874 161° South  Level Estimated
Tue 05:58:00 PM 26.1273 11.3326 161° South  Level Estimated
Tue 05:59:00 PM 26.0072 11.3777 161° South  Level Estimated
Tue 06:00:00 PM 25.8871 11.4227 161° South  Level Estimated
Tue 06:01:00 PM 25.7670 11.4676 161° South  Level Estimated
Tue 06:02:00 PM 25.6469 11.5124 161° South  Level Estimated
Tue 06:03:00 PM 25.5268 11.5571 161° South  Level Estimated
Tue 06:04:00 PM 25.4066 11.6018 161° South  Level Estimated
Tue 06:05:00 PM 25.2864 11.6463 161° South  Level Estimated
Tue 06:06:00 PM 25.1663 11.6908 161° South  Level Estimated
Tue 06:07:00 PM 25.0461 11.7352 162° South  Level Estimated
Tue 06:08:00 PM 24.9259 11.7795 162° South  Level Estimated
Tue 06:09:00 PM 24.8057 11.8237 162° South  Level Estimated
Tue 06:10:00 PM 24.6854 11.8678 162° South  Level Estimated
Tue 06:11:00 PM 24.5652 11.9118 162° South  Level Estimated
Tue 06:12:00 PM 24.4449 11.9558 162° South  Level Estimated
Tue 06:13:00 PM 24.3247 11.9996 162° South  Level Estimated
Tue 06:14:00 PM 24.2044 12.0434 162° South  Level Estimated
Tue 06:15:00 PM 24.0841 12.0871 162° South  Level Estimated
Tue 06:16:00 PM 23.9638 12.1307 162° South  Level Estimated
Tue 06:17:00 PM 23.8435 12.1743 162° South  Level Estimated
Tue 06:18:00 PM 23.7232 12.2177 162° South  Level Estimated
Tue 06:19:00 PM 23.6028 12.2611 162° South  Level Estimated
Tue 06:20:00 PM 23.4825 12.3044 162° South  Level Estimated
Tue 06:21:00 PM 23.3621 12.3476 162° South  Level Estimated
Tue 06:22:00 PM 23.2417 12.3907 162° South  Level Estimated
Tue 06:23:00 PM 23.1213 12.4338 162° South  Level Estimated
Tue 06:24:00 PM 23.0009 12.4768 162° South  Level Estimated
Tue 06:25:00 PM 22.8805 12.5197 162° South  Level Estimated
Tue 06:26:00 PM 22.7601 12.5625 162° South  Level Estimated
Tue 06:27:00 PM 22.6397 12.6053 162° South  Level Estimated
Tue 06:28:00 PM 22.5192 12.6480 162° South  Level Estimated
Tue 06:29:00 PM 22.3988 12.6906 162° South  Level Estimated
Tue 06:30:00 PM 22.2783 12.7331 162° South  Level Estimated
Tue 06:31:00 PM 22.1578 12.7755 162° South  Level Estimated
Tue 06:32:00 PM 22.0373 12.8179 162° South  Level Estimated
Tue 06:33:00 PM 21.9168 12.8603 162° South  Level Estimated
Tue 06:34:00 PM 21.7963 12.9025 162° South  Level Estimated
Tue 06:35:00 PM 21.6758 12.9447 162° South  Level Estimated
Tue 06:36:00 PM 21.5553 12.9868 162° South  Level Estimated
Tue 06:37:00 PM 21.4347 13.0288 162° South  Level Estimated
Tue 06:38:00 PM 21.3142 13.0708 162° South  Level Estimated
Tue 06:39:00 PM 21.1936 13.1126 162° South  Level Estimated
Tue 06:40:00 PM 21.0730 13.1545 162° South  Level Estimated
Tue 06:41:00 PM 20.9524 13.1962 162° South  Level Estimated
Tue 06:42:00 PM 20.8318 13.2379 162° South  Level Estimated
Tue 06:43:00 PM 20.7112 13.2795 162° South  Level Estimated
Tue 06:44:00 PM 20.5906 13.3211 162° South  Level Estimated
Tue 06:45:00 PM 20.4700 13.3626 162° South  Level Estimated
Tue 06:46:00 PM 20.3493 13.4040 162° South  Level Estimated
Tue 06:47:00 PM 20.2287 13.4454 162° South  Level Estimated
Tue 06:48:00 PM 20.1080 13.4867 162° South  Level Estimated
Tue 06:49:00 PM 19.9874 13.5279 162° South  Level Estimated
Tue 06:50:00 PM 19.8667 13.5691 162° South  Level Estimated
Tue 06:51:00 PM 19.7460 13.6102 162° South  Level Estimated
Tue 06:52:00 PM 19.6253 13.6512 162° South  Level Estimated
Tue 06:53:00 PM 19.5046 13.6922 162° South  Level Estimated
Tue 06:54:00 PM 19.3839 13.7331 162° South  Level Estimated
Tue 06:55:00 PM 19.2632 13.7740 162° South  Level Estimated
Tue 06:56:00 PM 19.1425 13.8148 162° South  Level Estimated
Tue 06:57:00 PM 19.0217 13.8555 162° South  Level Estimated
Tue 06:58:00 PM 18.9010 13.8962 162° South  Level Estimated
Tue 06:59:00 PM 18.7802 13.9368 162° South  Level Estimated
Tue 07:00:00 PM 18.6595 13.9774 162° South  Level Estimated
Tue 07:01:00 PM 18.5387 14.0179 162° South  Level Estimated
Tue 07:02:00 PM 18.4179 14.0584 162° South  Level Estimated
Tue 07:03:00 PM 18.2971 14.0988 162° South  Level Estimated
Tue 07:04:00 PM 18.1763 14.1391 162° South  Level Estimated
Tue 07:05:00 PM 18.0555 14.1794 162° South  Level Estimated
Tue 07:06:00 PM 17.9347 14.2196 162° South  Level Estimated
Tue 07:07:00 PM 17.8139 14.2598 162° South  Level Estimated
Tue 07:08:00 PM 17.6930 14.2999 162° South  Level Estimated
Tue 07:09:00 PM 17.5722 14.3399 162° South  Level Estimated
Tue 07:10:00 PM 17.4513 14.3800 162° South  Level Estimated
Tue 07:11:00 PM 17.3305 14.4199 162° South  Level Estimated
Tue 07:12:00 PM 17.2096 14.4598 162° South  Level Estimated
Tue 07:13:00 PM 17.0888 14.4997 163° South  Level Estimated
Tue 07:14:00 PM 16.9679 14.5395 163° South  Level Estimated
Tue 07:15:00 PM 16.8470 14.5792 163° South  Level Estimated
Tue 07:16:00 PM 16.7261 14.6189 163° South  Level Estimated
Tue 07:17:00 PM 16.6052 14.6586 163° South  Level Estimated
Tue 07:18:00 PM 16.4843 14.6982 163° South  Level Estimated
Tue 07:19:00 PM 16.3634 14.7377 163° South  Level Estimated
Tue 07:20:00 PM 16.2424 14.7772 163° South  Level Estimated
Tue 07:21:00 PM 16.1215 14.8167 163° South  Level Estimated
Tue 07:22:00 PM 16.0006 14.8561 163° South  Level Estimated
Tue 07:23:00 PM 15.8796 14.8954 163° South  Level Estimated
Tue 07:24:00 PM 15.7558 14.9357 163° South  Level Estimated
Tue 07:25:00 PM 15.6319 14.9759 163° South  Level Estimated
Tue 07:26:00 PM 15.5081 15.0160 163° South  Level Estimated
Tue 07:27:00 PM 15.3842 15.0561 163° South  Level Estimated
Tue 07:28:00 PM 15.2603 15.0962 163° South  Level Estimated
Tue 07:29:00 PM 15.1365 15.1362 163° South  Level Estimated
Tue 07:30:00 PM 15.0126 15.1761 163° South  Level Estimated
Tue 07:31:00 PM 14.8887 15.2161 163° South  Level Estimated
Tue 07:32:00 PM 14.7648 15.2559 163° South  Level Estimated
Tue 07:33:00 PM 14.6409 15.2957 163° South  Level Estimated
Tue 07:34:00 PM 14.5170 15.3355 163° South  Level Estimated
Tue 07:35:00 PM 14.3931 15.3752 163° South  Level Estimated
Tue 07:36:00 PM 14.2691 15.4149 163° South  Level Estimated
Tue 07:37:00 PM 14.1452 15.4546 163° South  Level Estimated
Tue 07:38:00 PM 14.0213 15.4942 163° South  Level Estimated
Tue 07:39:00 PM 13.8973 15.5337 163° South  Level Estimated
Tue 07:40:00 PM 13.7734 15.5733 163° South  Level Estimated
Tue 07:41:00 PM 13.6494 15.6127 163° South  Level Estimated
Tue 07:42:00 PM 13.5255 15.6522 163° South  Level Estimated
Tue 07:43:00 PM 13.4015 15.6916 163° South  Level Estimated
Tue 07:44:00 PM 13.2775 15.7309 163° South  Level Estimated
Tue 07:45:00 PM 13.1536 15.7702 163° South  Level Estimated
Tue 07:46:00 PM 13.0296 15.8095 163° South  Level Estimated
Tue 07:47:00 PM 12.9056 15.8487 163° South  Level Estimated
Tue 07:48:00 PM 12.7816 15.8879 163° South  Level Estimated
Tue 07:49:00 PM 12.6576 15.9270 163° South  Level Estimated
Tue 07:50:00 PM 12.5336 15.9662 163° South  Level Estimated
Tue 07:51:00 PM 12.4096 16.0053 163° South  Level Estimated
Tue 07:52:00 PM 12.2855 16.0443 163° South  Level Estimated
Tue 07:53:00 PM 12.1615 16.0833 163° South  Level Estimated
Tue 07:54:00 PM 12.0375 16.1223 163° South  Level Estimated
Tue 07:55:00 PM 11.9134 16.1612 163° South  Level Estimated
Tue 07:56:00 PM 11.7894 16.2001 163° South  Level Estimated
Tue 07:57:00 PM 11.6653 16.2390 163° South  Level Estimated
Tue 07:58:00 PM 11.5413 16.2778 163° South  Level Estimated
Tue 07:59:00 PM 11.4172 16.3166 163° South  Level Estimated
Tue 08:00:00 PM 11.2932 16.3553 163° South  Level Estimated
Tue 08:01:00 PM 11.1691 16.3941 163° South  Level Estimated
Tue 08:02:00 PM 11.0450 16.4327 163° South  Level Estimated
Tue 08:03:00 PM 10.9210 16.4714 163° South  Level Estimated
Tue 08:04:00 PM 10.7969 16.5100 163° South  Level Estimated
Tue 08:05:00 PM 10.6728 16.5486 163° South  Level Estimated
Tue 08:06:00 PM 10.5487 16.5872 163° South  Level Estimated
Tue 08:07:00 PM 10.4246 16.6257 163° South  Level Estimated
Tue 08:08:00 PM 10.3005 16.6642 163° South  Level Estimated
Tue 08:09:00 PM 10.1764 16.7027 163° South  Level Estimated
Tue 08:10:00 PM 10.0523 16.7411 163° South  Level Estimated
Tue 08:11:00 PM 9.9282 16.7795 163° South  Level Estimated
Tue 08:12:00 PM 9.8041 16.8179 163° South  Level Estimated
Tue 08:13:00 PM 9.6799 16.8563 163° South  Level Estimated
Tue 08:14:00 PM 9.5558 16.8946 163° South  Level Estimated
Tue 08:15:00 PM 9.4317 16.9329 163° South  Level Estimated
Tue 08:16:00 PM 9.3075 16.9712 163° South  Level Estimated
Tue 08:17:00 PM 9.1834 17.0094 163° South  Level Estimated
Tue 08:18:00 PM 9.0592 17.0476 163° South  Level Estimated
Tue 08:19:00 PM 8.9351 17.0858 163° South  Level Estimated
Tue 08:20:00 PM 8.8110 17.1240 163° South  Level Estimated
Tue 08:21:00 PM 8.6868 17.1621 163° South  Level Estimated
Tue 08:22:00 PM 8.5626 17.2002 163° South  Level Estimated
Tue 08:23:00 PM 8.4385 17.2383 163° South  Level Estimated
Tue 08:24:00 PM 8.3143 17.2764 163° South  Level Estimated
Tue 08:25:00 PM 8.1901 17.3144 163° South  Level Estimated
Tue 08:26:00 PM 8.0660 17.3524 163° South  Level Estimated
Tue 08:27:00 PM 7.9418 17.3904 163° South  Level Estimated
Tue 08:28:00 PM 7.8176 17.4284 163° South  Level Estimated
Tue 08:29:00 PM 7.6934 17.4663 163° South  Level Estimated
Tue 08:30:00 PM 7.5692 17.5043 163° South  Level Estimated
Tue 08:31:00 PM 7.4450 17.5422 163° South  Level Estimated
Tue 08:32:00 PM 7.3208 17.5800 163° South  Level Estimated
Tue 08:33:00 PM 7.1967 17.6179 163° South  Level Estimated
Tue 08:34:00 PM 7.0725 17.6557 163° South  Level Estimated
Tue 08:35:00 PM 6.9482 17.6936 163° South  Level Estimated
Tue 08:36:00 PM 6.8240 17.7314 163° South  Level Estimated
Tue 08:37:00 PM 6.6998 17.7691 163° South  Level Estimated
Tue 08:38:00 PM 6.5756 17.8069 163° South  Level Estimated
Tue 08:39:00 PM 6.4514 17.8446 163° South  Level Estimated
Tue 08:40:00 PM 6.3272 17.8824 163° South  Level Estimated
Tue 08:41:00 PM 6.2030 17.9201 163° South  Level Estimated
Tue 08:42:00 PM 6.0788 17.9578 163° South  Level Estimated
Tue 08:43:00 PM 5.9545 17.9954 163° South  Level Estimated
Tue 08:44:00 PM 5.8303 18.0331 163° South  Level Estimated
Tue 08:45:00 PM 5.7061 18.0707 163° South  Level Estimated
Tue 08:46:00 PM 5.5818 18.1083 163° South  Level Estimated
Tue 08:47:00 PM 5.4576 18.1459 163° South  Level Estimated
Tue 08:48:00 PM 5.3334 18.1835 163° South  Level Estimated
Tue 08:49:00 PM 5.2091 18.2211 163° South  Level Estimated
Tue 08:50:00 PM 5.0849 18.2586 163° South  Level Estimated
Tue 08:51:00 PM 4.9606 18.2962 163° South  Level Estimated
Tue 08:52:00 PM 4.8364 18.3337 163° South  Level Estimated
Tue 08:53:00 PM 4.7121 18.3712 163° South  Level Estimated
Tue 08:54:00 PM 4.5879 18.4087 163° South  Level Estimated
Tue 08:55:00 PM 4.4636 18.4462 163° South  Level Estimated
Tue 08:56:00 PM 4.3394 18.4837 163° South  Level Estimated
Tue 08:57:00 PM 4.2151 18.5212 163° South  Level Estimated
Tue 08:58:00 PM 4.0909 18.5586 163° South  Level Estimated
Tue 08:59:00 PM 3.9666 18.5961 163° South  Level Estimated
Tue 09:00:00 PM 3.8423 18.6335 163° South  Level Estimated
Tue 09:01:00 PM 3.7181 18.6709 163° South  Level Estimated
Tue 09:02:00 PM 3.5938 18.7083 163° South  Level Estimated
Tue 09:03:00 PM 3.4695 18.7457 163° South  Level Estimated
Tue 09:04:00 PM 3.3453 18.7831 163° South  Level Estimated
Tue 09:05:00 PM 3.2210 18.8205 163° South  Level Estimated
Tue 09:06:00 PM 3.0967 18.8579 163° South  Level Estimated
Tue 09:07:00 PM 2.9725 18.8952 163° South  Level Estimated
Tue 09:08:00 PM 2.8482 18.9326 163° South  Level Estimated
Tue 09:09:00 PM 2.7239 18.9699 163° South  Level Estimated
Tue 09:10:00 PM 2.5996 19.0072 163° South  Level Estimated
Tue 09:11:00 PM 2.4754 19.0446 163° South  Level Estimated
Tue 09:12:00 PM 2.3511 19.0819 163° South  Level Estimated
Tue 09:13:00 PM 2.2268 19.1192 163° South  Level Estimated
Tue 09:14:00 PM 2.1025 19.1565 163° South  Level Estimated
Tue 09:15:00 PM 1.9783 19.1938 163° South  Level Estimated
Tue 09:16:00 PM 1.8540 19.2311 163° South  Level Estimated
Tue 09:17:00 PM 1.7297 19.2684 163° South  Level Estimated
Tue 09:18:00 PM 1.6054 19.3057 163° South  Level Estimated
Tue 09:19:00 PM 1.4811 19.3430 163° South  Level Estimated
Tue 09:20:00 PM 1.3569 19.3803 163° South  Level Estimated
Tue 09:21:00 PM 1.2326 19.4175 163° South  Level Estimated
Tue 09:22:00 PM 1.1083 19.4548 163° South  Level Estimated
Tue 09:23:00 PM 0.9840 19.4921 163° South  Level Estimated
Tue 09:24:00 PM 0.8597 19.5293 163° South  Level Estimated
Tue 09:25:00 PM 0.7354 19.5666 163° South  Level Estimated
Tue 09:26:00 PM 0.6111 19.6039 163° South  Level Estimated
Tue 09:27:00 PM 0.4868 19.6411 163° South  Level Estimated
Tue 09:28:00 PM 0.3625 19.6784 163° South  Level Estimated
Tue 09:29:00 PM 0.2383 19.7156 163° South  Level Estimated
Tue 09:30:00 PM 0.1140 19.7529 163° South  Level Estimated
Tue 09:31:00 PM -0.0103 19.7902 163° South  Level Estimated
Tue 09:32:00 PM -0.1346 19.8274 163° South  Level Estimated
Tue 09:33:00 PM -0.2589 19.8647 163° South  Level Estimated
Tue 09:34:00 PM -0.3832 19.9019 163° South  Level Estimated
Tue 09:35:00 PM -0.5075 19.9392 163° South  Level Estimated
Tue 09:36:00 PM -0.6318 19.9765 163° South  Level Estimated
Tue 09:37:00 PM -0.7561 20.0137 163° South  Level Estimated
Tue 09:38:00 PM -0.8804 20.0510 163° South  Level Estimated
Tue 09:39:00 PM -1.0046 20.0882 163° South  Level Estimated
Tue 09:40:00 PM -1.1289 20.1255 163° South  Level Estimated
Tue 09:41:00 PM -1.2532 20.1628 163° South  Level Estimated
Tue 09:42:00 PM -1.3775 20.2001 163° South  Level Estimated
Tue 09:43:00 PM -1.5018 20.2373 163° South  Level Estimated
Tue 09:44:00 PM -1.6261 20.2746 163° South  Level Estimated
Tue 09:45:00 PM -1.7503 20.3119 163° South  Level Estimated
Tue 09:46:00 PM -1.8746 20.3492 163° South  Level Estimated
Tue 09:47:00 PM -1.9989 20.3865 163° South  Level Estimated
Tue 09:48:00 PM -2.1232 20.4238 163° South  Level Estimated
Tue 09:49:00 PM -2.2475 20.4611 163° South  Level Estimated
Tue 09:50:00 PM -2.3718 20.4984 163° South  Level Estimated
Tue 09:51:00 PM -2.4960 20.5357 163° South  Level Estimated
Tue 09:52:00 PM -2.6203 20.5731 163° South  Level Estimated
Tue 09:53:00 PM -2.7446 20.6104 163° South  Level Estimated
Tue 09:54:00 PM -2.8689 20.6478 163° South  Level Estimated
Tue 09:55:00 PM -2.9931 20.6851 163° South  Level Estimated
Tue 09:56:00 PM -3.1174 20.7225 163° South  Level Estimated
Tue 09:57:00 PM -3.2417 20.7598 163° South  Level Estimated
Tue 09:58:00 PM -3.3659 20.7972 163° South  Level Estimated
Tue 09:59:00 PM -3.4902 20.8346 163° South  Level Estimated
Tue 10:00:00 PM -3.6145 20.8720 163° South  Level Estimated
Tue 10:01:00 PM -3.7387 20.9094 163° South  Level Estimated
Tue 10:02:00 PM -3.8630 20.9468 163° South  Level Estimated
Tue 10:03:00 PM -3.9873 20.9843 163° South  Level Estimated
Tue 10:04:00 PM -4.1115 21.0217 163° South  Level Estimated
Tue 10:05:00 PM -4.2358 21.0592 163° South  Level Estimated
Tue 10:06:00 PM -4.3600 21.0966 163° South  Level Estimated
Tue 10:07:00 PM -4.4843 21.1341 163° South  Level Estimated
Tue 10:08:00 PM -4.6085 21.1716 163° South  Level Estimated
Tue 10:09:00 PM -4.7328 21.2091 163° South  Level Estimated
Tue 10:10:00 PM -4.8570 21.2466 163° South  Level Estimated
Tue 10:11:00 PM -4.9813 21.2841 163° South  Level Estimated
Tue 10:12:00 PM -5.1055 21.3217 163° South  Level Estimated
Tue 10:13:00 PM -5.2298 21.3593 163° South  Level Estimated
Tue 10:14:00 PM -5.3540 21.3968 163° South  Level Estimated
Tue 10:15:00 PM -5.4783 21.4344 163° South  Level Estimated
Tue 10:16:00 PM -5.6025 21.4720 163° South  Level Estimated
Tue 10:17:00 PM -5.7267 21.5096 163° South  Level Estimated
Tue 10:18:00 PM -5.8509 21.5473 163° South  Level Estimated
Tue 10:19:00 PM -5.9752 21.5849 163° South  Level Estimated
Tue 10:20:00 PM -6.0994 21.6226 163° South  Level Estimated
Tue 10:21:00 PM -6.2236 21.6603 163° South  Level Estimated
Tue 10:22:00 PM -6.3478 21.6980 163° South  Level Estimated
Tue 10:23:00 PM -6.4721 21.7357 163° South  Level Estimated
Tue 10:24:00 PM -6.5963 21.7735 163° South  Level Estimated
Tue 10:25:00 PM -6.7205 21.8112 163° South  Level Estimated
Tue 10:26:00 PM -6.8447 21.8490 163° South  Level Estimated
Tue 10:27:00 PM -6.9689 21.8868 163° South  Level Estimated
Tue 10:28:00 PM -7.0931 21.9246 163° South  Level Estimated
Tue 10:29:00 PM -7.2173 21.9625 163° South  Level Estimated
Tue 10:30:00 PM -7.3415 22.0003 163° South  Level Estimated
Tue 10:31:00 PM -7.4657 22.0382 163° South  Level Estimated
Tue 10:32:00 PM -7.5899 22.0761 163° South  Level Estimated
Tue 10:33:00 PM -7.7141 22.1141 163° South  Level Estimated
Tue 10:34:00 PM -7.8383 22.1520 163° South  Level Estimated
Tue 10:35:00 PM -7.9624 22.1900 163° South  Level Estimated
Tue 10:36:00 PM -8.0866 22.2280 163° South  Level Estimated
Tue 10:37:00 PM -8.2108 22.2660 163° South  Level Estimated
Tue 10:38:00 PM -8.3350 22.3040 163° South  Level Estimated
Tue 10:39:00 PM -8.4591 22.3421 163° South  Level Estimated
Tue 10:40:00 PM -8.5833 22.3802 163° South  Level Estimated
Tue 10:41:00 PM -8.7074 22.4183 163° South  Level Estimated
Tue 10:42:00 PM -8.8316 22.4565 163° South  Level Estimated
Tue 10:43:00 PM -8.9558 22.4946 163° South  Level Estimated
Tue 10:44:00 PM -9.0799 22.5328 163° South  Level Estimated
Tue 10:45:00 PM -9.2040 22.5710 163° South  Level Estimated
Tue 10:46:00 PM -9.3282 22.6093 163° South  Level Estimated
Tue 10:47:00 PM -9.4523 22.6476 163° South  Level Estimated
Tue 10:48:00 PM -9.5764 22.6859 163° South  Level Estimated
Tue 10:49:00 PM -9.7006 22.7242 163° South  Level Estimated
Tue 10:50:00 PM -9.8247 22.7626 163° South  Level Estimated
Tue 10:51:00 PM -9.9488 22.8009 163° South  Level Estimated
Tue 10:52:00 PM -10.0729 22.8394 163° South  Level Estimated
Tue 10:53:00 PM -10.1970 22.8778 163° South  Level Estimated
Tue 10:54:00 PM -10.3211 22.9163 163° South  Level Estimated
Tue 10:55:00 PM -10.4452 22.9548 163° South  Level Estimated
Tue 10:56:00 PM -10.5693 22.9933 163° South  Level Estimated
Tue 10:57:00 PM -10.6934 23.0319 163° South  Level Estimated
Tue 10:58:00 PM -10.8175 23.0705 163° South  Level Estimated
Tue 10:59:00 PM -10.9416 23.1091 163° South  Level Estimated
Tue 11:00:00 PM -11.0657 23.1478 163° South  Level Estimated
Tue 11:01:00 PM -11.1897 23.1865 163° South  Level Estimated
Tue 11:02:00 PM -11.3138 23.2252 163° South  Level Estimated
Tue 11:03:00 PM -11.4379 23.2640 163° South  Level Estimated
Tue 11:04:00 PM -11.5619 23.3028 163° South  Level Estimated
Tue 11:05:00 PM -11.6860 23.3416 163° South  Level Estimated
Tue 11:06:00 PM -11.8100 23.3805 163° South  Level Estimated
Tue 11:07:00 PM -11.9341 23.4194 163° South  Level Estimated
Tue 11:08:00 PM -12.0581 23.4583 163° South  Level Estimated
Tue 11:09:00 PM -12.1821 23.4973 163° South  Level Estimated
Tue 11:10:00 PM -12.3062 23.5363 163° South  Level Estimated
Tue 11:11:00 PM -12.4302 23.5754 163° South  Level Estimated
Tue 11:12:00 PM -12.5542 23.6144 163° South  Level Estimated
Tue 11:13:00 PM -12.6782 23.6536 163° South  Level Estimated
Tue 11:14:00 PM -12.8022 23.6927 163° South  Level Estimated
Tue 11:15:00 PM -12.9262 23.7319 163° South  Level Estimated
Tue 11:16:00 PM -13.0502 23.7712 163° South  Level Estimated
Tue 11:17:00 PM -13.1742 23.8104 163° South  Level Estimated
Tue 11:18:00 PM -13.2982 23.8498 163° South  Level Estimated
Tue 11:19:00 PM -13.4221 23.8891 163° South  Level Estimated
Tue 11:20:00 PM -13.5461 23.9285 163° South  Level Estimated
Tue 11:21:00 PM -13.6700 23.9680 163° South  Level Estimated
Tue 11:22:00 PM -13.7940 24.0074 163° South  Level Estimated
Tue 11:23:00 PM -13.9179 24.0470 163° South  Level Estimated
Tue 11:24:00 PM -14.0419 24.0865 163° South  Level Estimated
Tue 11:25:00 PM -14.1658 24.1261 163° South  Level Estimated
Tue 11:26:00 PM -14.2898 24.1658 163° South  Level Estimated
Tue 11:27:00 PM -14.4137 24.2055 163° South  Level Estimated
Tue 11:28:00 PM -14.5376 24.2452 163° South  Level Estimated
Tue 11:29:00 PM -14.6615 24.2850 163° South  Level Estimated
Tue 11:30:00 PM -14.7854 24.3248 163° South  Level Estimated
Tue 11:31:00 PM -14.9093 24.3647 163° South  Level Estimated
Tue 11:32:00 PM -15.0332 24.4046 163° South  Level Estimated
Tue 11:33:00 PM -15.1571 24.4446 163° South  Level Estimated
Tue 11:34:00 PM -15.2809 24.4846 163° South  Level Estimated
Tue 11:35:00 PM -15.4048 24.5247 163° South  Level Estimated
Tue 11:36:00 PM -15.5287 24.5648 163° South  Level Estimated
Tue 11:37:00 PM -15.6525 24.6049 163° South  Level Estimated
Tue 11:38:00 PM -15.7764 24.6451 163° South  Level Estimated
Tue 11:39:00 PM -15.9002 24.6854 163° South  Level Estimated
Tue 11:40:00 PM -16.0240 24.7257 163° South  Level Estimated
Tue 11:41:00 PM -16.1479 24.7660 163° South  Level Estimated
Tue 11:42:00 PM -16.2717 24.8064 163° South  Level Estimated
Tue 11:43:00 PM -16.3955 24.8469 163° South  Level Estimated
Tue 11:44:00 PM -16.5193 24.8874 163° South  Level Estimated
Tue 11:45:00 PM -16.6431 24.9279 163° South  Level Estimated
Tue 11:46:00 PM -16.7668 24.9685 163° South  Level Estimated
Tue 11:47:00 PM -16.8906 25.0092 163° South  Level Estimated
Tue 11:48:00 PM -17.0144 25.0499 163° South  Level Estimated
Tue 11:49:00 PM -17.1381 25.0907 163° South  Level Estimated
Tue 11:50:00 PM -17.2619 25.1315 163° South  Level Estimated
Tue 11:51:00 PM -17.3856 25.1724 163° South  Level Estimated
Tue 11:52:00 PM -17.5094 25.2134 162° South  Level Estimated
Tue 11:53:00 PM -17.6331 25.2543 162° South  Level Estimated
Tue 11:54:00 PM -17.7568 25.2954 162° South  Level Estimated
Tue 11:55:00 PM -17.8805 25.3365 162° South  Level Estimated
Tue 11:56:00 PM -18.0042 25.3776 162° South  Level Estimated
Tue 11:57:00 PM -18.1279 25.4189 162° South  Level Estimated
Tue 11:58:00 PM -18.2516 25.4601 162° South  Level Estimated
Tue 11:59:00 PM -18.3753 25.5015 162° South  Level Estimated
Wed 12:00:00 AM -18.4989 25.5429 162° South  Level Estimated
Wed 12:01:00 AM -18.6226 25.5844 162° South  Level Estimated
Wed 12:02:00 AM -18.7463 25.6259 162° South  Level Estimated
Wed 12:03:00 AM -18.8699 25.6674 162° South  Level Estimated
Wed 12:04:00 AM -18.9935 25.7091 162° South  Level Estimated
Wed 12:05:00 AM -19.1171 25.7508 162° South  Level Estimated
Wed 12:06:00 AM -19.2407 25.7925 162° South  Level Estimated
Wed 12:07:00 AM -19.3643 25.8344 162° South  Level Estimated
Wed 12:08:00 AM -19.4879 25.8763 162° South  Level Estimated
Wed 12:09:00 AM -19.6115 25.9182 162° South  Level Estimated
Wed 12:10:00 AM -19.7351 25.9602 162° South  Level Estimated
Wed 12:11:00 AM -19.8587 26.0023 162° South  Level Estimated
Wed 12:12:00 AM -19.9822 26.0445 162° South  Level Estimated
Wed 12:13:00 AM -20.1057 26.0867 162° South  Level Estimated
Wed 12:14:00 AM -20.2293 26.1290 162° South  Level Estimated
Wed 12:15:00 AM -20.3528 26.1713 162° South  Level Estimated
Wed 12:16:00 AM -20.4763 26.2137 162° South  Level Estimated
Wed 12:17:00 AM -20.5998 26.2562 162° South  Level Estimated
Wed 12:18:00 AM -20.7233 26.2988 162° South  Level Estimated
Wed 12:19:00 AM -20.8468 26.3414 162° South  Level Estimated
Wed 12:20:00 AM -20.9702 26.3841 162° South  Level Estimated
Wed 12:21:00 AM -21.0937 26.4268 162° South  Level Estimated
Wed 12:22:00 AM -21.2171 26.4697 162° South  Level Estimated
Wed 12:23:00 AM -21.3406 26.5126 162° South  Level Estimated
Wed 12:24:00 AM -21.4640 26.5555 162° South  Level Estimated
Wed 12:25:00 AM -21.5874 26.5986 162° South  Level Estimated
Wed 12:26:00 AM -21.7108 26.6417 162° South  Level Estimated
Wed 12:27:00 AM -21.8342 26.6849 162° South  Level Estimated
Wed 12:28:00 AM -21.9576 26.7282 162° South  Level Estimated
Wed 12:29:00 AM -22.0810 26.7715 162° South  Level Estimated
Wed 12:30:00 AM -22.2043 26.8150 162° South  Level Estimated
Wed 12:31:00 AM -22.3277 26.8585 162° South  Level Estimated
Wed 12:32:00 AM -22.4510 26.9020 162° South  Level Estimated
Wed 12:33:00 AM -22.5744 26.9457 162° South  Level Estimated
Wed 12:34:00 AM -22.6977 26.9894 162° South  Level Estimated
Wed 12:35:00 AM -22.8210 27.0332 162° South  Level Estimated
Wed 12:36:00 AM -22.9443 27.0771 162° South  Level Estimated
Wed 12:37:00 AM -23.0675 27.1211 162° South  Level Estimated
Wed 12:38:00 AM -23.1908 27.1651 162° South  Level Estimated
Wed 12:39:00 AM -23.3141 27.2093 162° South  Level Estimated
Wed 12:40:00 AM -23.4373 27.2535 162° South  Level Estimated
Wed 12:41:00 AM -23.5605 27.2978 162° South  Level Estimated
Wed 12:42:00 AM -23.6837 27.3422 162° South  Level Estimated
Wed 12:43:00 AM -23.8069 27.3867 162° South  Level Estimated
Wed 12:44:00 AM -23.9301 27.4312 162° South  Level Estimated
Wed 12:44:34 AM -25.1190 26.6010 162° South 517 595 33,100  Level FlightAware ADS-B
Wed 12:45:00 AM -24.0533 27.4758 162° South  Level Estimated
Wed 12:45:19 AM -25.1900 26.6980 129° Southeast 519 597 31,200  Level FlightAware ADS-B
Wed 12:46:04 AM -25.2570 26.7890 129° Southeast 526 605 29,900 -1,906 Descending FlightAware ADS-B
Wed 12:46:44 AM -25.3210 26.8760 129° Southeast 517 595 28,500 -2,100 Descending FlightAware ADS-B
Wed 12:47:24 AM -25.3790 26.9570 128° Southeast 506 582 27,100 -1,976 Descending FlightAware ADS-B
Wed 12:48:09 AM -25.4440 27.0470 129° Southeast 497 572 25,700 -1,976 Descending FlightAware ADS-B
Wed 12:48:49 AM -25.5010 27.1280 128° Southeast 494 568 24,300 -2,025 Descending FlightAware ADS-B
Wed 12:49:29 AM -25.5570 27.2100 127° Southeast 487 560 23,000 -1,906 Descending FlightAware ADS-B
Wed 12:50:14 AM -25.6170 27.2960 128° Southeast 478 550 21,600 -1,412 Descending FlightAware ADS-B
Wed 12:50:54 AM -25.6710 27.3740 128° Southeast 447 514 21,000 -988 Descending FlightAware ADS-B
Wed 12:51:39 AM -25.7220 27.4480 127° Southeast 420 483 20,200 -1,059 Descending FlightAware ADS-B
Wed 12:52:19 AM -25.7650 27.5240 122° Southeast 401 461 19,500 -1,125 Descending FlightAware ADS-B
Wed 12:52:59 AM -25.8030 27.5920 122° Southeast 383 441 18,700 -1,200 Descending FlightAware ADS-B
Wed 12:53:44 AM -25.8430 27.6630 122° Southeast 369 425 17,800 -1,341 Descending FlightAware ADS-B
Wed 12:54:24 AM -25.8810 27.7310 122° Southeast 365 420 16,800 -1,412 Descending FlightAware ADS-B
Wed 12:55:09 AM -25.9200 27.8010 122° Southeast 355 409 15,800 -1,271 Descending FlightAware ADS-B
Wed 12:55:49 AM -25.9530 27.8610 121° Southeast 346 398 15,000 -1,341 Descending FlightAware ADS-B
Wed 12:56:34 AM -25.9900 27.9290 121° Southeast 341 392 13,900 -1,412 Descending FlightAware ADS-B
Wed 12:57:14 AM -26.0230 27.9880 122° Southeast 334 384 13,000 -1,275 Descending FlightAware ADS-B
Wed 12:57:54 AM -26.0490 28.0500 115° Southeast 318 366 12,200 -1,029 Descending FlightAware ADS-B
Wed 12:58:24 AM -26.0350 28.0940 71° East 301 346 11,800 -857 Descending FlightAware ADS-B
Wed 12:59:04 AM -25.9970 28.1350 44° Northeast 276 318 11,200 -1,271 Descending FlightAware ADS-B
Wed 12:59:49 AM -25.9610 28.1780 47° Northeast 265 305 10,000 -1,457 Descending FlightAware ADS-B
Wed 01:00:14 AM -25.9390 28.2040 47° Northeast 259 298 9,500 -1,200 Descending FlightAware ADS-B
Wed 01:00:44 AM -25.9200 28.2390 59° Northeast 264 304 8,900 -800 Descending FlightAware ADS-B
Wed 01:01:14 AM -25.9290 28.2730 106° East 249 287 8,700 -436 Descending FlightAware ADS-B
Wed 01:01:39 AM -25.9480 28.2990 129° Southeast 238 274 8,500 -257 Descending FlightAware ADS-B
Wed 01:02:24 AM -25.9910 28.3140 163° South 232 267 8,400 -655 Descending FlightAware ADS-B
Wed 01:02:34 AM -25.9970 28.3000 245° Southwest 221 254 7,900 -1,500 Descending FlightAware ADS-B
Wed 01:03:04 AM -26.0270 28.2910 195° South 214 246 7,400 -1,091 Descending FlightAware ADS-B
Wed 01:03:29 AM -26.0510 28.2830 197° South 204 235 6,900 -1,091 Descending FlightAware ADS-B
Wed 01:03:59 AM -26.0730 28.2760 196° South 183 211 6,400 -982 Descending FlightAware ADS-B
Wed 01:04:24 AM -26.0940 28.2700 194° South 168 193 6,000 -873 Descending FlightAware ADS-B
Wed 01:04:54 AM -26.1170 28.2630 195° South 149 171 5,600 -700 Descending FlightAware ADS-B
Wed 01:05:24 AM -26.1340 28.2580 195° South 150 173 5,300 -600 Descending FlightAware ADS-B

Login

Don't have an account? Register now (free) for customized features, flight alerts, and more!